Siletz, Oregon
Current Conditions -  °F | °C
As of 11:15 PM on Friday 19 Dec 2014 (Local Time) from KONP Reporting Station
Light Rain Light Rain  
Wind Chill: 43°   Ceiling: 1800
Heat Index: 48°   Visibility: 7mi
Dew Point: 46°   Wind: 13mph
Humidity: 93%   Direction: 170°S
Pressure: 29.9"   Gusts: 18mph
Location:  44.72°N, 123.92°W
Report Text: KONP 200715Z AUTO 17011G16KT 7SM -RA SCT011 BKN018 OVC023 09/08 A2990 RMK AO2 P0002
Loading
Personal Weather Stations






























Interactive Weather Map New forecast layout! Learn more

10-Day Weather Forecast

Advertisements
Track Severe Weather on mobile